createdAt,value
2019-02-24T00:00:57.533Z,12.88
2019-02-24T00:03:24.955Z,10.25
2019-02-24T00:05:52.198Z,12.15
2019-02-24T00:08:20.303Z,12.00
2019-02-24T00:10:47.514Z,11.38
2019-02-24T00:13:14.749Z,12.03
2019-02-24T00:15:42.089Z,12.70
2019-02-24T00:18:09.297Z,12.55
2019-02-24T00:20:36.531Z,12.33
2019-02-24T00:23:04.374Z,13.18
2019-02-24T00:25:31.593Z,13.28
2019-02-24T00:28:06.781Z,12.07
2019-02-24T00:30:27.954Z,13.40
2019-02-24T00:32:55.182Z,12.68
2019-02-24T00:35:22.398Z,11.75
2019-02-24T00:37:49.631Z,12.03
2019-02-24T00:40:16.954Z,12.75
2019-02-24T00:42:44.164Z,13.15
2019-02-24T00:45:11.398Z,12.82
2019-02-24T00:47:38.626Z,12.73
2019-02-24T00:50:06.869Z,13.40
2019-02-24T00:52:34.095Z,12.35
2019-02-24T00:55:01.310Z,11.53
2019-02-24T00:57:28.533Z,12.25
2019-02-24T00:59:55.764Z,12.82
2019-02-24T01:02:23.077Z,13.00
2019-02-24T01:04:50.414Z,13.13
2019-02-24T01:07:17.637Z,12.23
2019-02-24T01:09:45.779Z,12.70
2019-02-24T01:12:13.003Z,13.28
2019-02-24T01:14:40.226Z,14.30
2019-02-24T01:17:07.446Z,12.00
2019-02-24T01:19:34.690Z,12.70
2019-02-24T01:22:01.917Z,13.85
2019-02-24T01:24:29.158Z,12.00
2019-02-24T01:26:56.398Z,14.20
2019-02-24T01:29:23.631Z,11.68
2019-02-24T01:31:50.843Z,12.65
2019-02-24T01:34:18.088Z,12.73
2019-02-24T01:36:45.329Z,13.00
2019-02-24T01:39:12.593Z,11.75
2019-02-24T01:41:39.937Z,11.83
2019-02-24T01:44:07.269Z,12.98
2019-02-24T01:46:34.489Z,12.37
2019-02-24T01:49:01.730Z,13.10
2019-02-24T01:51:28.982Z,12.00
2019-02-24T01:53:58.125Z,12.58
2019-02-24T01:56:25.374Z,11.83
2019-02-24T01:58:52.631Z,11.95
2019-02-24T02:01:19.844Z,12.55
2019-02-24T02:03:47.070Z,12.10
2019-02-24T02:06:14.301Z,12.60
2019-02-24T02:08:41.653Z,11.45
2019-02-24T02:11:09.821Z,11.60
2019-02-24T02:13:37.061Z,11.60
2019-02-24T02:16:04.276Z,11.63
2019-02-24T02:18:31.590Z,12.10
2019-02-24T02:20:58.822Z,13.43
2019-02-24T02:23:26.062Z,11.88
2019-02-24T02:25:53.409Z,12.05
2019-02-24T02:28:20.640Z,11.57
2019-02-24T02:30:47.860Z,13.35
2019-02-24T02:33:16.994Z,13.72
2019-02-24T02:35:46.114Z,12.23
2019-02-24T02:38:13.363Z,11.85
2019-02-24T02:40:40.697Z,11.40
2019-02-24T02:43:07.918Z,12.85
2019-02-24T02:45:35.239Z,12.35
2019-02-24T02:48:02.470Z,12.43
2019-02-24T02:50:29.722Z,11.55
2019-02-24T02:52:56.974Z,9.53
2019-02-24T02:55:24.212Z,8.40
2019-02-24T02:57:51.453Z,9.40
2019-02-24T03:00:32.520Z,8.88
2019-02-24T03:02:59.969Z,9.28
2019-02-24T03:05:27.279Z,9.25
2019-02-24T03:08:06.685Z,8.68
2019-02-24T03:10:33.915Z,8.58
2019-02-24T03:13:02.074Z,8.13
2019-02-24T03:15:29.423Z,8.03
2019-02-24T03:17:56.655Z,9.40
2019-02-24T03:20:23.985Z,9.88
2019-02-24T03:22:51.223Z,9.73
2019-02-24T03:25:18.446Z,9.00
2019-02-24T03:27:45.669Z,10.43
2019-02-24T03:30:12.906Z,10.70
2019-02-24T03:32:40.132Z,11.00
2019-02-24T03:35:07.355Z,12.25
2019-02-24T03:37:34.583Z,14.25
2019-02-24T03:40:01.814Z,12.60
2019-02-24T03:42:29.041Z,11.63
2019-02-24T03:44:56.376Z,10.40
2019-02-24T03:47:23.601Z,9.48
2019-02-24T03:49:50.837Z,8.98
2019-02-24T03:52:18.150Z,10.93
2019-02-24T03:54:45.366Z,10.45
2019-02-24T03:57:12.609Z,9.98
2019-02-24T03:59:39.843Z,9.88
2019-02-24T04:02:07.046Z,8.98
2019-02-24T04:04:34.285Z,9.70
2019-02-24T04:07:01.510Z,9.70
2019-02-24T04:09:28.727Z,9.50
2019-02-24T04:11:55.974Z,10.53
2019-02-24T04:14:23.274Z,10.80
2019-02-24T04:16:50.520Z,10.13
2019-02-24T04:19:17.755Z,9.58
2019-02-24T04:21:45.130Z,9.93
2019-02-24T04:24:12.427Z,10.50
2019-02-24T04:26:39.663Z,11.33
2019-02-24T04:29:06.897Z,10.53
2019-02-24T04:31:34.242Z,11.05
2019-02-24T04:34:01.495Z,10.20
2019-02-24T04:36:28.735Z,10.00
2019-02-24T04:38:56.037Z,10.60
2019-02-24T04:41:23.275Z,11.15
2019-02-24T04:43:50.503Z,11.20
2019-02-24T04:46:17.754Z,10.75
2019-02-24T04:48:45.006Z,10.93
2019-02-24T04:51:12.250Z,11.00
2019-02-24T04:53:39.459Z,9.65
2019-02-24T04:56:06.695Z,10.30
2019-02-24T04:58:33.919Z,10.82
2019-02-24T05:01:01.162Z,12.15
2019-02-24T05:03:28.414Z,11.95
2019-02-24T05:05:55.657Z,12.10
2019-02-24T05:08:22.871Z,10.50
2019-02-24T05:10:50.226Z,12.58
2019-02-24T05:13:17.462Z,11.05
2019-02-24T05:15:45.586Z,10.32
2019-02-24T05:18:12.815Z,12.07
2019-02-24T05:20:40.335Z,11.95
2019-02-24T05:23:07.554Z,11.90
2019-02-24T05:25:34.791Z,11.68
2019-02-24T05:28:02.033Z,11.97
2019-02-24T05:30:29.416Z,14.05
2019-02-24T05:32:56.666Z,12.50
2019-02-24T05:35:23.923Z,13.98
2019-02-24T05:37:51.134Z,13.45
2019-02-24T05:40:18.384Z,13.35
2019-02-24T05:42:45.702Z,11.30
2019-02-24T05:45:12.934Z,13.10
2019-02-24T05:47:40.182Z,11.22
2019-02-24T05:50:07.531Z,11.65
2019-02-24T05:52:34.746Z,12.50
2019-02-24T05:55:01.975Z,12.55
2019-02-24T05:57:29.197Z,12.95
2019-02-24T05:59:56.443Z,12.47
2019-02-24T06:02:23.685Z,13.48
2019-02-24T06:04:50.942Z,11.45
2019-02-24T06:07:18.177Z,13.13
2019-02-24T06:09:45.504Z,11.45
2019-02-24T06:12:12.735Z,10.38
2019-02-24T06:14:39.986Z,11.60
2019-02-24T06:17:07.233Z,11.48
2019-02-24T06:19:34.481Z,11.20
2019-02-24T06:22:01.689Z,12.43
2019-02-24T06:24:28.917Z,11.88
2019-02-24T06:26:56.150Z,10.95
2019-02-24T06:29:23.395Z,10.98
2019-02-24T06:31:50.753Z,9.88
2019-02-24T06:34:17.999Z,10.90
2019-02-24T06:36:45.246Z,11.55
2019-02-24T06:39:12.495Z,10.25
2019-02-24T06:41:39.753Z,11.45
2019-02-24T06:44:06.998Z,11.00
2019-02-24T06:46:34.249Z,11.30
2019-02-24T06:49:01.510Z,10.82
2019-02-24T06:51:29.109Z,11.93
2019-02-24T06:53:56.353Z,11.00
2019-02-24T06:56:23.582Z,13.75
2019-02-24T06:58:50.821Z,11.12
2019-02-24T07:01:18.077Z,11.00
2019-02-24T07:03:45.325Z,10.40
2019-02-24T07:06:12.546Z,10.72
2019-02-24T07:08:39.895Z,10.50
2019-02-24T07:11:07.226Z,10.50
2019-02-24T07:13:34.553Z,8.93
2019-02-24T07:16:01.970Z,9.90
2019-02-24T07:18:30.129Z,10.20
2019-02-24T07:20:57.662Z,9.60
2019-02-24T07:23:24.927Z,12.53
2019-02-24T07:25:52.262Z,17.12
2019-02-24T07:28:19.517Z,15.13
2019-02-24T07:30:46.870Z,10.50
2019-02-24T07:33:14.098Z,9.57
2019-02-24T07:35:41.339Z,10.07
2019-02-24T07:38:08.703Z,9.50
2019-02-24T07:40:35.990Z,11.40
2019-02-24T07:43:03.249Z,12.00
2019-02-24T07:45:30.550Z,10.97
2019-02-24T07:47:57.786Z,10.20
2019-02-24T07:50:25.037Z,11.30
2019-02-24T07:52:52.373Z,10.57
2019-02-24T07:55:19.614Z,10.17
2019-02-24T07:57:46.977Z,9.10
2019-02-24T08:00:14.208Z,9.23
2019-02-24T08:02:41.434Z,10.30
2019-02-24T08:05:08.662Z,9.67
2019-02-24T08:07:35.886Z,9.77
2019-02-24T08:10:03.441Z,9.60
2019-02-24T08:12:30.665Z,9.27
2019-02-24T08:14:57.881Z,9.87
2019-02-24T08:17:25.131Z,8.37
2019-02-24T08:19:52.374Z,10.33
2019-02-24T08:22:19.605Z,9.87
2019-02-24T08:24:46.833Z,10.40
2019-02-24T08:27:14.142Z,9.30
2019-02-24T08:29:41.368Z,9.23
2019-02-24T08:32:08.605Z,8.80
2019-02-24T08:34:35.862Z,8.27
2019-02-24T08:37:03.115Z,9.07
2019-02-24T08:39:30.363Z,9.23
2019-02-24T08:41:57.588Z,7.97
2019-02-24T08:44:24.822Z,8.13
2019-02-24T08:46:52.151Z,7.90
2019-02-24T08:49:19.393Z,8.27
2019-02-24T08:51:46.676Z,9.17
2019-02-24T08:54:13.917Z,7.97
2019-02-24T08:56:41.127Z,7.97
2019-02-24T08:59:08.377Z,8.00
2019-02-24T09:01:35.706Z,7.90
2019-02-24T09:04:03.145Z,8.40
2019-02-24T09:06:30.502Z,8.83
2019-02-24T09:08:57.753Z,8.27
2019-02-24T09:11:25.160Z,7.30
2019-02-24T09:13:52.407Z,8.70
2019-02-24T09:16:19.640Z,11.97
2019-02-24T09:18:46.925Z,9.00
2019-02-24T09:21:14.185Z,10.07
2019-02-24T09:23:41.528Z,8.80
2019-02-24T09:26:08.805Z,9.93
2019-02-24T09:28:36.042Z,9.60
2019-02-24T09:31:03.266Z,11.20
2019-02-24T09:33:30.508Z,9.50
2019-02-24T09:35:57.757Z,9.13
2019-02-24T09:38:25.064Z,8.60
2019-02-24T09:40:52.287Z,9.73
2019-02-24T09:43:19.526Z,8.77
2019-02-24T09:45:46.769Z,9.80
2019-02-24T09:48:14.015Z,9.60
2019-02-24T09:50:41.270Z,9.97
2019-02-24T09:53:08.613Z,8.60
2019-02-24T09:55:35.828Z,8.17
2019-02-24T09:58:03.058Z,12.17
2019-02-24T10:00:30.291Z,11.73
2019-02-24T10:02:57.749Z,12.37
2019-02-24T10:05:25.297Z,11.60
2019-02-24T10:07:52.649Z,10.70
2019-02-24T10:10:19.871Z,11.10
2019-02-24T10:12:47.317Z,10.13
2019-02-24T10:15:14.545Z,11.63
2019-02-24T10:17:41.779Z,11.57
2019-02-24T10:20:09.274Z,10.50
2019-02-24T10:22:36.543Z,8.73
2019-02-24T10:25:05.863Z,11.00
2019-02-24T10:27:33.057Z,12.47
2019-02-24T10:30:00.346Z,11.87
2019-02-24T10:32:27.614Z,12.20
2019-02-24T10:34:54.850Z,11.80
2019-02-24T10:37:22.190Z,9.13
2019-02-24T10:39:49.526Z,10.67
2019-02-24T10:42:16.765Z,9.57
2019-02-24T10:44:44.019Z,9.40
2019-02-24T10:47:11.226Z,10.13
2019-02-24T10:49:38.454Z,9.07
2019-02-24T10:52:05.687Z,9.70
2019-02-24T10:54:32.911Z,13.83
2019-02-24T10:57:00.146Z,9.80
2019-02-24T10:59:27.398Z,11.67
2019-02-24T11:01:54.687Z,10.70
2019-02-24T11:04:21.924Z,11.40
2019-02-24T11:06:49.155Z,10.40
2019-02-24T11:09:16.496Z,9.10
2019-02-24T11:11:43.890Z,10.13
2019-02-24T11:14:11.129Z,9.57
2019-02-24T11:16:38.554Z,12.23
2019-02-24T11:19:05.912Z,10.37
2019-02-24T11:21:33.276Z,9.77
2019-02-24T11:24:01.734Z,12.10
2019-02-24T11:26:29.168Z,9.63
2019-02-24T11:28:56.400Z,9.87
2019-02-24T11:31:23.605Z,8.70
2019-02-24T11:33:51.011Z,10.00
2019-02-24T11:36:18.244Z,9.30
2019-02-24T11:38:45.470Z,9.80
2019-02-24T11:41:12.727Z,10.27
2019-02-24T11:43:39.982Z,9.40
2019-02-24T11:46:07.209Z,10.07
2019-02-24T11:48:34.442Z,8.83
2019-02-24T11:51:01.666Z,8.70
2019-02-24T11:53:28.970Z,8.80
2019-02-24T11:55:56.210Z,9.47
2019-02-24T11:58:23.550Z,9.93
2019-02-24T12:00:50.941Z,8.40
2019-02-24T12:03:18.248Z,9.03
2019-02-24T12:05:45.630Z,8.20
2019-02-24T12:08:12.863Z,7.03
2019-02-24T12:10:40.120Z,7.77
2019-02-24T12:13:07.369Z,6.93
2019-02-24T12:15:34.589Z,6.90
2019-02-24T12:18:01.811Z,7.47
2019-02-24T12:20:29.035Z,7.07
2019-02-24T12:22:56.394Z,7.10
2019-02-24T12:25:24.561Z,6.93
2019-02-24T12:27:51.909Z,7.33
2019-02-24T12:30:19.234Z,7.50
2019-02-24T12:32:46.480Z,6.90
2019-02-24T12:35:13.702Z,7.13
2019-02-24T12:37:40.953Z,7.10
2019-02-24T12:40:08.250Z,6.83
2019-02-24T12:42:35.584Z,6.20
2019-02-24T12:45:02.946Z,6.47
2019-02-24T12:47:30.168Z,5.80
2019-02-24T12:50:03.302Z,7.00
2019-02-24T12:52:26.650Z,6.60
2019-02-24T12:54:53.997Z,7.07
2019-02-24T12:57:21.221Z,6.80
2019-02-24T12:59:48.438Z,6.70
2019-02-24T13:02:15.678Z,6.60
2019-02-24T13:04:42.938Z,6.40
2019-02-24T13:07:10.276Z,6.60
2019-02-24T13:09:37.617Z,7.57
2019-02-24T13:12:04.958Z,6.97
2019-02-24T13:14:32.178Z,6.67
2019-02-24T13:16:59.399Z,6.60
2019-02-24T13:19:26.630Z,7.07
2019-02-24T13:21:53.966Z,7.40
2019-02-24T13:24:21.205Z,7.27
2019-02-24T13:26:48.489Z,7.67
2019-02-24T13:29:15.813Z,7.07
2019-02-24T13:31:43.044Z,8.57
2019-02-24T13:34:10.294Z,7.40
2019-02-24T13:36:37.508Z,6.60
2019-02-24T13:39:06.010Z,7.80
2019-02-24T13:41:33.230Z,8.60
2019-02-24T13:44:00.461Z,7.80
2019-02-24T13:46:27.681Z,6.87
2019-02-24T13:48:54.918Z,7.70
2019-02-24T13:51:22.246Z,7.70
2019-02-24T13:53:49.560Z,8.20
2019-02-24T13:56:16.809Z,8.40
2019-02-24T13:58:44.029Z,8.70
2019-02-24T14:01:11.291Z,7.17
2019-02-24T14:03:38.523Z,7.80
2019-02-24T14:06:05.730Z,7.20
2019-02-24T14:08:33.093Z,7.10
2019-02-24T14:11:00.423Z,6.80
2019-02-24T14:13:27.770Z,7.10
2019-02-24T14:15:55.082Z,6.70
2019-02-24T14:18:22.314Z,7.60
2019-02-24T14:20:49.655Z,7.83
2019-02-24T14:23:16.874Z,7.47
2019-02-24T14:25:44.114Z,7.60
2019-02-24T14:28:11.389Z,7.50
2019-02-24T14:30:38.606Z,6.97
2019-02-24T14:33:05.835Z,7.90
2019-02-24T14:35:33.044Z,8.57
2019-02-24T14:38:00.381Z,7.53
2019-02-24T14:40:27.650Z,8.53
2019-02-24T14:42:54.943Z,9.17
2019-02-24T14:45:22.201Z,8.40
2019-02-24T14:47:49.834Z,7.33
2019-02-24T14:50:17.154Z,7.30
2019-02-24T14:52:44.390Z,8.13
2019-02-24T14:55:11.731Z,8.43
2019-02-24T14:57:38.965Z,7.20
2019-02-24T15:00:08.401Z,8.53
2019-02-24T15:02:42.175Z,8.00
2019-02-24T15:05:06.479Z,6.97
2019-02-24T15:07:33.825Z,8.07
2019-02-24T15:10:01.060Z,7.30
2019-02-24T15:12:28.412Z,7.20
2019-02-24T15:14:55.645Z,8.00
2019-02-24T15:17:22.887Z,7.10
2019-02-24T15:19:50.216Z,7.20
2019-02-24T15:22:17.454Z,7.13
2019-02-24T15:24:44.677Z,7.63
2019-02-24T15:27:12.030Z,7.00
2019-02-24T15:29:40.904Z,7.97
2019-02-24T15:32:08.241Z,7.67
2019-02-24T15:34:35.552Z,6.97
2019-02-24T15:37:02.803Z,7.33
2019-02-24T15:39:30.034Z,7.33
2019-02-24T15:41:57.657Z,8.00
2019-02-24T15:44:25.012Z,7.60
2019-02-24T15:46:52.238Z,7.40
2019-02-24T15:49:19.443Z,7.50
2019-02-24T15:51:46.688Z,8.43
2019-02-24T15:54:13.901Z,7.67
2019-02-24T15:56:41.139Z,8.30
2019-02-24T15:59:08.486Z,7.33
2019-02-24T16:01:35.726Z,8.40
2019-02-24T16:04:02.973Z,14.67
2019-02-24T16:06:37.036Z,9.53
2019-02-24T16:08:59.409Z,10.30
2019-02-24T16:11:26.796Z,9.97
2019-02-24T16:13:54.208Z,8.70
2019-02-24T16:16:21.446Z,15.87
2019-02-24T16:18:48.882Z,11.30
2019-02-24T16:21:16.121Z,12.20
2019-02-24T16:23:43.374Z,12.43
2019-02-24T16:26:10.757Z,9.87
2019-02-24T16:28:38.013Z,9.97
2019-02-24T16:31:06.175Z,7.90
2019-02-24T16:33:33.394Z,7.20
2019-02-24T16:36:00.738Z,8.40
2019-02-24T16:38:27.983Z,8.70
2019-02-24T16:40:55.206Z,8.30
2019-02-24T16:43:22.641Z,10.80
2019-02-24T16:45:49.867Z,9.50
2019-02-24T16:48:17.106Z,11.47
2019-02-24T16:50:45.277Z,9.50
2019-02-24T16:53:12.518Z,10.00
2019-02-24T16:55:39.795Z,9.20
2019-02-24T16:58:07.149Z,8.03
2019-02-24T17:00:34.525Z,8.57
2019-02-24T17:03:01.750Z,10.90
2019-02-24T17:05:29.003Z,8.07
2019-02-24T17:07:56.235Z,9.50
2019-02-24T17:10:23.627Z,10.00
2019-02-24T17:12:50.965Z,9.60
2019-02-24T17:15:18.230Z,9.83
2019-02-24T17:17:45.496Z,8.63
2019-02-24T17:20:14.030Z,8.60
2019-02-24T17:22:41.301Z,10.80
2019-02-24T17:25:08.534Z,9.57
2019-02-24T17:27:35.869Z,8.70
2019-02-24T17:30:03.673Z,8.70
2019-02-24T17:32:31.934Z,7.50
2019-02-24T17:34:59.162Z,7.40
2019-02-24T17:37:26.398Z,7.93
2019-02-24T17:39:53.621Z,8.00
2019-02-24T17:42:20.874Z,9.33
2019-02-24T17:44:48.110Z,8.73
2019-02-24T17:47:15.490Z,9.10
2019-02-24T17:49:42.754Z,9.27
2019-02-24T17:52:10.034Z,9.73
2019-02-24T17:54:37.486Z,10.43
2019-02-24T17:57:04.916Z,8.60
2019-02-24T17:59:40.126Z,9.23
2019-02-24T18:02:01.299Z,9.83
2019-02-24T18:04:28.586Z,10.27
2019-02-24T18:06:56.001Z,9.87
2019-02-24T18:09:23.206Z,11.90
2019-02-24T18:11:50.561Z,11.00
2019-02-24T18:14:17.790Z,14.77
2019-02-24T18:16:45.040Z,12.37
2019-02-24T18:19:12.291Z,11.07
2019-02-24T18:21:39.530Z,11.47
2019-02-24T18:24:06.843Z,10.27
2019-02-24T18:26:34.082Z,11.00
2019-02-24T18:29:01.361Z,9.23
2019-02-24T18:31:28.755Z,9.97
2019-02-24T18:33:56.013Z,9.80
2019-02-24T18:36:23.254Z,10.20
2019-02-24T18:38:50.476Z,10.63
2019-02-24T18:41:17.713Z,10.60
2019-02-24T18:43:44.990Z,17.20
2019-02-24T18:46:12.251Z,16.47
2019-02-24T18:48:39.494Z,10.93
2019-02-24T18:51:06.737Z,10.37
2019-02-24T18:53:33.973Z,13.63
2019-02-24T18:56:01.294Z,11.20
2019-02-24T18:58:28.546Z,10.10
2019-02-24T19:00:55.782Z,11.57
2019-02-24T19:03:23.026Z,11.97
2019-02-24T19:05:50.405Z,14.47
2019-02-24T19:08:17.614Z,11.37
2019-02-24T19:10:44.853Z,12.53
2019-02-24T19:13:12.090Z,11.17
2019-02-24T19:15:39.326Z,11.23
2019-02-24T19:18:06.568Z,13.10
2019-02-24T19:20:33.855Z,18.90
2019-02-24T19:23:01.085Z,14.93
2019-02-24T19:25:28.318Z,12.77
2019-02-24T19:27:55.570Z,13.10
2019-02-24T19:30:22.996Z,12.10
2019-02-24T19:32:50.240Z,15.63
2019-02-24T19:35:17.707Z,12.77
2019-02-24T19:37:45.059Z,15.30
2019-02-24T19:40:13.833Z,12.90
2019-02-24T19:42:41.057Z,13.00
2019-02-24T19:45:08.972Z,13.10
2019-02-24T19:47:36.275Z,13.20
2019-02-24T19:50:04.286Z,12.07
2019-02-24T19:52:31.599Z,11.50
2019-02-24T19:54:58.833Z,12.57
2019-02-24T19:57:26.066Z,13.63
2019-02-24T19:59:53.278Z,13.70
2019-02-24T20:02:20.506Z,14.40
2019-02-24T20:04:47.731Z,12.80
2019-02-24T20:07:14.954Z,10.73
2019-02-24T20:09:42.194Z,12.90
2019-02-24T20:12:09.454Z,19.47
2019-02-24T20:14:36.795Z,15.80
2019-02-24T20:17:04.122Z,15.23
2019-02-24T20:19:31.337Z,14.30
2019-02-24T20:21:58.665Z,12.57
2019-02-24T20:24:25.912Z,13.13
2019-02-24T20:26:53.158Z,12.77
2019-02-24T20:29:20.361Z,11.87
2019-02-24T20:31:47.588Z,11.80
2019-02-24T20:34:14.944Z,11.47
2019-02-24T20:36:42.223Z,12.20
2019-02-24T20:39:09.658Z,12.57
2019-02-24T20:41:36.894Z,16.27
2019-02-24T20:44:04.319Z,16.57
2019-02-24T20:46:31.554Z,18.43
2019-02-24T20:48:58.971Z,19.80
2019-02-24T20:51:26.306Z,18.20
2019-02-24T20:53:53.545Z,16.30
2019-02-24T20:56:20.806Z,15.03
2019-02-24T20:58:48.047Z,15.10
2019-02-24T21:01:15.306Z,13.70
2019-02-24T21:03:42.538Z,14.70
2019-02-24T21:06:09.773Z,16.30
2019-02-24T21:08:37.041Z,15.90
2019-02-24T21:11:04.281Z,21.43
2019-02-24T21:13:31.490Z,17.70
2019-02-24T21:15:58.846Z,12.93
2019-02-24T21:18:26.083Z,11.90
2019-02-24T21:20:53.325Z,13.00
2019-02-24T21:23:20.567Z,12.13
2019-02-24T21:25:47.826Z,10.87
2019-02-24T21:28:15.076Z,11.93
2019-02-24T21:30:42.326Z,13.20
2019-02-24T21:33:09.549Z,13.27
2019-02-24T21:35:36.801Z,13.00
2019-02-24T21:38:04.450Z,11.43
2019-02-24T21:40:31.682Z,11.93
2019-02-24T21:42:58.886Z,16.87
2019-02-24T21:45:26.162Z,12.50
2019-02-24T21:47:53.397Z,12.87
2019-02-24T21:50:20.704Z,13.53
2019-02-24T21:52:47.940Z,12.30
2019-02-24T21:55:15.180Z,11.50
2019-02-24T21:57:42.395Z,12.13
2019-02-24T22:00:12.597Z,13.63
2019-02-24T22:02:39.842Z,12.70
2019-02-24T22:05:07.633Z,11.63
2019-02-24T22:07:34.890Z,11.43
2019-02-24T22:10:02.154Z,12.57
2019-02-24T22:12:29.358Z,12.43
2019-02-24T22:14:56.614Z,12.10
2019-02-24T22:17:23.845Z,11.17
2019-02-24T22:19:51.081Z,10.90
2019-02-24T22:22:18.318Z,11.97
2019-02-24T22:24:45.550Z,12.30
2019-02-24T22:27:12.766Z,13.33
2019-02-24T22:29:40.005Z,12.07
2019-02-24T22:32:07.426Z,14.20
2019-02-24T22:34:34.755Z,12.90
2019-02-24T22:37:02.002Z,13.00
2019-02-24T22:39:30.145Z,12.97
2019-02-24T22:41:57.361Z,12.10
2019-02-24T22:44:24.667Z,12.10
2019-02-24T22:46:52.074Z,11.37
2019-02-24T22:49:19.289Z,11.47
2019-02-24T22:51:46.525Z,13.17
2019-02-24T22:54:14.059Z,13.00
2019-02-24T22:56:41.288Z,12.20
2019-02-24T22:59:08.511Z,11.77
2019-02-24T23:01:37.901Z,12.83
2019-02-24T23:04:07.594Z,12.90
2019-02-24T23:06:34.833Z,12.67
2019-02-24T23:09:02.738Z,14.73
2019-02-24T23:11:30.166Z,14.87
2019-02-24T23:13:57.380Z,13.30
2019-02-24T23:16:24.630Z,14.90
2019-02-24T23:18:51.842Z,13.30
2019-02-24T23:21:19.074Z,12.43
2019-02-24T23:23:46.294Z,13.90
2019-02-24T23:26:13.530Z,13.97
2019-02-24T23:28:40.758Z,12.93
2019-02-24T23:31:07.985Z,13.13
2019-02-24T23:33:35.199Z,12.57
2019-02-24T23:36:02.421Z,12.07
2019-02-24T23:38:29.661Z,11.47
2019-02-24T23:40:56.987Z,11.13
2019-02-24T23:43:24.222Z,12.50
2019-02-24T23:45:51.562Z,13.80
2019-02-24T23:48:18.782Z,12.53
2019-02-24T23:50:46.126Z,11.83
2019-02-24T23:53:13.457Z,11.83
2019-02-24T23:55:40.710Z,12.67
2019-02-24T23:58:08.159Z,11.50
